Portada
METAR-TAF:

METAR-TAF

Aeropuertos :

Aeropuerto Internacional Hato

Curazao, Antillas Neerlandesas

latitud: 12-12N, longitud: 068-58W, altitud: 9 m

Observación

El informe se hizo hace 1 hora y 14 minutos, a las 15:00 UTC
Viento 16 kt del este
Temperatura 32°C
Humedad 56%
Presión 1012 hPa
Visibilidad 10 km o más
Nubes dispersas a una altura de 2500 ft

METAR: TNCC 211500Z 10016KT 9999 SCT025 32/22 Q1012 NOSIG

Hora: 12:14 (16:14 UTC)

Pronóstico

El informe se hizo hace 6 horas y 14 minutos, a las 10:00 UTC
Pronóstico válido del 21 a las 12 UTC al 22 a las 12 UTC
Viento 18 kt del este-sureste con ráfagas de 29 kt
Visibilidad 10 km o más
Nubes dispersas a una altura de 1800 ft
Temporalmente
del 21 a las 12 UTC al 21 a las 14 UTC
Cielo nuboso a una altura de 1500 ft

TAF: TNCC 211000Z 2112/2212 11018G29KT 9999 SCT018 TEMPO 2112/2114 BKN015

Observaciones y pronósticos meteorológicos de más de 4000 aeropuertos (mensajes METAR y TAF).

Los puntos amarillos y rojos representan las estaciones disponibles.

Ponga el ratón en el punto deseado para ver el nombre de la estación.

Haga clic para ver las observaciones y los pronósticos meteorológicos.

Para cambiar el mapa : haga clic en los botones verdes con una cruz de color negro para hacer un zoom, en el botón verde con un guión para alejar o en las flechas verdes para mapas adyacentes.


METAR-TAF: